createdAt,value
2023-02-28T00:00:53.204Z,102976.47
2023-02-28T00:03:19.733Z,102960.03
2023-02-28T00:05:46.535Z,102971.31
2023-02-28T00:08:14.115Z,102967.91
2023-02-28T00:10:40.623Z,102967.16
2023-02-28T00:13:08.164Z,102954.34
2023-02-28T00:15:34.729Z,102978.75
2023-02-28T00:18:01.358Z,102972.03
2023-02-28T00:20:27.909Z,102940.00
2023-02-28T00:22:55.017Z,102983.50
2023-02-28T00:25:24.515Z,102981.81
2023-02-28T00:27:50.985Z,102980.19
2023-02-28T00:30:19.901Z,102986.50
2023-02-28T00:32:46.432Z,102946.84
2023-02-28T00:35:13.482Z,102978.13
2023-02-28T00:37:40.081Z,102981.72
2023-02-28T00:40:07.832Z,102983.53
2023-02-28T00:42:37.325Z,102975.72
2023-02-28T00:45:09.056Z,102978.47
2023-02-28T00:47:35.859Z,102968.84
2023-02-28T00:50:03.112Z,102979.44
2023-02-28T00:52:29.644Z,102991.81
2023-02-28T00:54:56.258Z,102968.72
2023-02-28T00:57:23.181Z,102998.25
2023-02-28T00:59:49.704Z,102966.41
2023-02-28T01:02:16.494Z,102940.41
2023-02-28T01:04:43.076Z,102986.28
2023-02-28T01:07:10.197Z,102982.81
2023-02-28T01:09:36.640Z,102990.00
2023-02-28T01:12:03.210Z,102978.91
2023-02-28T01:14:29.733Z,102958.22
2023-02-28T01:16:56.116Z,102989.50
2023-02-28T01:19:22.560Z,102969.94
2023-02-28T01:21:49.016Z,102984.53
2023-02-28T01:24:15.647Z,102983.72
2023-02-28T01:26:42.342Z,102971.72
2023-02-28T01:29:08.842Z,102993.59
2023-02-28T01:31:35.708Z,102984.94
2023-02-28T01:34:02.603Z,102967.66
2023-02-28T01:36:29.149Z,102984.88
2023-02-28T01:38:55.579Z,102973.78
2023-02-28T01:41:28.899Z,102946.19
2023-02-28T01:44:04.076Z,102990.22
2023-02-28T01:46:35.952Z,103001.69
2023-02-28T01:49:18.763Z,102984.25
2023-02-28T01:51:51.819Z,102978.91
2023-02-28T01:54:23.557Z,102979.88
2023-02-28T01:57:12.968Z,102991.28
2023-02-28T01:59:51.053Z,102990.53
2023-02-28T02:02:19.774Z,102975.72
2023-02-28T02:04:54.523Z,102989.69
2023-02-28T02:07:21.391Z,102983.66
2023-02-28T02:09:47.863Z,102981.75
2023-02-28T02:12:45.144Z,102985.19
2023-02-28T02:15:17.086Z,102979.94
2023-02-28T02:17:48.584Z,102982.59
2023-02-28T02:20:41.096Z,102983.28
2023-02-28T02:23:25.537Z,102980.66
2023-02-28T02:26:12.977Z,102978.72
2023-02-28T02:29:11.154Z,102973.38
2023-02-28T02:31:56.355Z,102971.66
2023-02-28T02:34:57.962Z,102977.66
2023-02-28T02:37:29.868Z,102958.47
2023-02-28T02:40:05.365Z,102966.31
2023-02-28T02:42:51.827Z,102969.72
2023-02-28T02:45:37.300Z,102968.91
2023-02-28T02:48:07.549Z,102916.44
2023-02-28T02:50:44.116Z,102972.16
2023-02-28T02:53:13.490Z,102959.28
2023-02-28T02:55:43.952Z,102964.72
2023-02-28T02:58:15.761Z,102959.69
2023-02-28T03:00:47.630Z,102958.91
2023-02-28T03:03:18.714Z,102961.78
2023-02-28T03:05:51.935Z,102963.16
2023-02-28T03:08:18.964Z,102968.47
2023-02-28T03:10:47.661Z,102960.78
2023-02-28T03:13:35.677Z,102964.56
2023-02-28T03:16:35.581Z,102973.66
2023-02-28T03:19:26.689Z,102975.78
2023-02-28T03:22:11.190Z,102973.56
2023-02-28T03:24:43.716Z,102977.28
2023-02-28T03:27:17.516Z,102974.94
2023-02-28T03:29:51.736Z,102976.03
2023-02-28T03:32:26.606Z,102959.19
2023-02-28T03:35:14.726Z,102987.00
2023-02-28T03:37:44.875Z,102983.66
2023-02-28T03:40:19.049Z,102968.97
2023-02-28T03:42:59.886Z,102985.59
2023-02-28T03:45:30.849Z,102991.81
2023-02-28T03:48:19.096Z,102982.16
2023-02-28T03:50:48.915Z,102989.38
2023-02-28T03:53:30.068Z,102967.75
2023-02-28T03:56:10.429Z,102987.94
2023-02-28T03:59:02.234Z,102983.75
2023-02-28T04:01:37.652Z,102985.78
2023-02-28T04:04:05.212Z,102983.53
2023-02-28T04:06:33.445Z,102992.44
2023-02-28T04:09:00.820Z,102966.72
2023-02-28T04:11:39.065Z,102993.84
2023-02-28T04:14:08.337Z,102991.50
2023-02-28T04:16:37.543Z,102994.44
2023-02-28T04:19:06.298Z,102990.34
2023-02-28T04:21:41.796Z,102999.44
2023-02-28T04:24:14.965Z,102951.22
2023-02-28T04:26:44.570Z,102979.19
2023-02-28T04:29:13.374Z,102975.03
2023-02-28T04:31:40.430Z,102996.03
2023-02-28T04:34:06.911Z,102970.31
2023-02-28T04:36:33.722Z,102993.00
2023-02-28T04:39:00.120Z,102999.22
2023-02-28T04:41:29.635Z,102996.72
2023-02-28T04:43:58.508Z,103003.88
2023-02-28T04:46:25.152Z,102994.38
2023-02-28T04:48:51.640Z,102972.75
2023-02-28T04:51:19.651Z,102997.28
2023-02-28T04:53:47.026Z,102993.97
2023-02-28T04:56:16.759Z,103003.53
2023-02-28T04:58:43.896Z,102982.88
2023-02-28T05:01:28.990Z,103000.31
2023-02-28T05:03:57.685Z,102954.59
2023-02-28T05:06:26.621Z,103005.94
2023-02-28T05:08:54.055Z,102956.72
2023-02-28T05:11:21.995Z,102994.13
2023-02-28T05:13:48.933Z,102962.19
2023-02-28T05:16:16.325Z,103018.81
2023-02-28T05:18:43.076Z,102951.97
2023-02-28T05:21:38.985Z,103004.13
2023-02-28T05:24:08.866Z,102968.75
2023-02-28T05:26:37.377Z,103003.56
2023-02-28T05:29:04.032Z,102988.94
2023-02-28T05:31:30.831Z,103013.41
2023-02-28T05:33:57.682Z,102975.28
2023-02-28T05:36:24.670Z,103018.81
2023-02-28T05:38:51.976Z,103025.09
2023-02-28T05:41:20.854Z,103021.59
2023-02-28T05:43:48.157Z,103019.09
2023-02-28T05:46:15.005Z,102966.25
2023-02-28T05:48:42.787Z,103029.72
2023-02-28T05:51:09.793Z,103025.44
2023-02-28T05:53:36.802Z,103028.13
2023-02-28T05:56:04.123Z,102990.91
2023-02-28T05:58:31.991Z,102983.09
2023-02-28T06:01:00.170Z,103030.94
2023-02-28T06:03:27.608Z,103034.47
2023-02-28T06:05:54.442Z,103040.63
2023-02-28T06:08:21.239Z,103030.22
2023-02-28T06:10:47.722Z,103030.25
2023-02-28T06:13:14.229Z,103034.59
2023-02-28T06:15:40.743Z,103036.34
2023-02-28T06:18:07.906Z,103041.59
2023-02-28T06:20:35.431Z,103022.44
2023-02-28T06:23:01.918Z,103036.31
2023-02-28T06:25:28.799Z,103045.09
2023-02-28T06:27:56.219Z,103044.25
2023-02-28T06:30:26.250Z,103032.91
2023-02-28T06:32:53.088Z,103042.47
2023-02-28T06:35:19.626Z,103034.69
2023-02-28T06:37:46.138Z,103006.06
2023-02-28T06:40:13.968Z,103052.97
2023-02-28T06:42:40.486Z,103052.97
2023-02-28T06:45:10.271Z,103045.16
2023-02-28T06:47:38.968Z,103052.88
2023-02-28T06:50:06.681Z,103049.34
2023-02-28T06:52:33.437Z,102991.19
2023-02-28T06:55:02.879Z,103051.97
2023-02-28T06:57:34.494Z,103055.41
2023-02-28T07:00:02.664Z,103059.78
2023-02-28T07:02:29.311Z,103050.97
2023-02-28T07:04:55.800Z,103055.41
2023-02-28T07:07:22.374Z,102993.63
2023-02-28T07:09:48.836Z,103024.84
2023-02-28T07:12:15.282Z,103053.53
2023-02-28T07:14:41.861Z,103063.00
2023-02-28T07:17:10.018Z,103071.69
2023-02-28T07:19:36.507Z,103055.97
2023-02-28T07:22:03.841Z,103069.78
2023-02-28T07:24:30.416Z,103061.88
2023-02-28T07:26:57.479Z,103075.69
2023-02-28T07:29:24.009Z,103071.19
2023-02-28T07:31:54.069Z,103074.56
2023-02-28T07:34:21.034Z,103069.06
2023-02-28T07:36:47.482Z,103066.41
2023-02-28T07:39:13.902Z,103066.25
2023-02-28T07:41:44.256Z,103053.91
2023-02-28T07:44:11.964Z,103066.66
2023-02-28T07:46:38.821Z,103046.44
2023-02-28T07:49:05.681Z,103058.38
2023-02-28T07:51:32.364Z,103066.88
2023-02-28T07:53:59.106Z,103069.19
2023-02-28T07:56:25.521Z,103032.56
2023-02-28T07:58:51.948Z,103076.47
2023-02-28T08:01:20.398Z,103072.75
2023-02-28T08:03:46.882Z,103074.13
2023-02-28T08:06:19.221Z,103076.44
2023-02-28T08:08:46.104Z,103031.88
2023-02-28T08:11:12.582Z,103045.44
2023-02-28T08:13:38.996Z,103073.81
2023-02-28T08:16:05.810Z,103081.31
2023-02-28T08:18:33.405Z,103066.22
2023-02-28T08:21:00.222Z,103047.75
2023-02-28T08:23:26.674Z,103055.06
2023-02-28T08:25:57.301Z,103059.22
2023-02-28T08:28:26.992Z,103079.59
2023-02-28T08:30:53.711Z,103073.09
2023-02-28T08:33:20.386Z,103064.81
2023-02-28T08:35:46.938Z,103078.13
2023-02-28T08:38:16.448Z,103047.28
2023-02-28T08:40:43.669Z,103084.91
2023-02-28T08:43:10.395Z,103057.59
2023-02-28T08:45:37.130Z,103082.16
2023-02-28T08:48:03.913Z,103079.94
2023-02-28T08:50:30.392Z,103077.75
2023-02-28T08:52:56.790Z,103057.38
2023-02-28T08:55:23.381Z,103077.75
2023-02-28T08:57:49.797Z,103084.19
2023-02-28T09:00:16.551Z,103087.94
2023-02-28T09:02:44.607Z,103083.75
2023-02-28T09:05:11.041Z,103091.78
2023-02-28T09:07:37.616Z,103087.53
2023-02-28T09:10:04.578Z,103097.38
2023-02-28T09:12:35.447Z,103088.13
2023-02-28T09:15:02.443Z,103084.06
2023-02-28T09:17:30.786Z,103087.88
2023-02-28T09:19:58.031Z,103096.06
2023-02-28T09:22:24.697Z,103090.06
2023-02-28T09:24:51.081Z,103076.19
2023-02-28T09:27:17.512Z,103051.44
2023-02-28T09:29:44.136Z,103075.78
2023-02-28T09:32:10.622Z,103090.97
2023-02-28T09:34:38.008Z,103086.91
2023-02-28T09:37:04.774Z,103089.44
2023-02-28T09:39:31.949Z,103091.13
2023-02-28T09:41:58.992Z,103084.53
2023-02-28T09:44:40.412Z,103091.53
2023-02-28T09:47:30.037Z,103095.38
2023-02-28T09:49:59.579Z,103100.91
2023-02-28T09:52:31.428Z,103108.03
2023-02-28T09:55:12.832Z,103101.13
2023-02-28T09:57:42.191Z,103104.69
2023-02-28T10:00:20.347Z,103100.31
2023-02-28T10:03:19.217Z,103100.66
2023-02-28T10:06:22.756Z,103100.47
2023-02-28T10:09:14.832Z,103100.63
2023-02-28T10:11:42.305Z,103103.25
2023-02-28T10:14:15.316Z,103094.75
2023-02-28T10:16:48.771Z,103092.72
2023-02-28T10:19:26.921Z,103079.84
2023-02-28T10:22:00.138Z,103098.72
2023-02-28T10:24:29.638Z,103093.16
2023-02-28T10:27:02.752Z,103059.03
2023-02-28T10:29:33.696Z,103096.31
2023-02-28T10:32:09.332Z,103085.28
2023-02-28T10:34:35.762Z,103083.78
2023-02-28T10:37:14.570Z,103058.41
2023-02-28T10:39:48.009Z,103078.88
2023-02-28T10:42:29.719Z,103082.69
2023-02-28T10:45:13.373Z,103086.53
2023-02-28T10:47:58.978Z,103081.53
2023-02-28T10:50:28.601Z,103085.06
2023-02-28T10:52:55.812Z,103093.72
2023-02-28T10:55:26.106Z,103077.75
2023-02-28T10:57:53.480Z,103088.28
2023-02-28T11:00:23.520Z,103095.69
2023-02-28T11:02:49.967Z,103088.59
2023-02-28T11:05:30.876Z,103089.56
2023-02-28T11:08:05.615Z,103082.03
2023-02-28T11:10:35.706Z,103100.72
2023-02-28T11:13:02.556Z,103091.56
2023-02-28T11:15:34.219Z,103084.72
2023-02-28T11:18:27.016Z,103091.50
2023-02-28T11:20:57.381Z,103079.75
2023-02-28T11:23:28.565Z,103080.53
2023-02-28T11:25:59.195Z,103081.19
2023-02-28T11:28:32.563Z,103043.50
2023-02-28T11:31:25.604Z,103033.06
2023-02-28T11:33:56.866Z,103038.31
2023-02-28T11:36:29.321Z,103077.25
2023-02-28T11:39:02.573Z,103072.28
2023-02-28T11:41:40.849Z,103072.56
2023-02-28T11:44:19.795Z,103058.59
2023-02-28T11:47:01.721Z,103060.97
2023-02-28T11:49:53.322Z,103058.44
2023-02-28T11:52:46.437Z,103065.09
2023-02-28T11:55:24.646Z,103058.22
2023-02-28T11:57:55.315Z,103047.47
2023-02-28T12:00:31.752Z,103054.38
2023-02-28T12:03:18.222Z,103044.84
2023-02-28T12:05:55.822Z,103046.44
2023-02-28T12:08:45.649Z,103044.88
2023-02-28T12:11:46.103Z,103039.63
2023-02-28T12:14:24.429Z,103039.09
2023-02-28T12:17:07.908Z,103036.19
2023-02-28T12:19:45.815Z,103031.44
2023-02-28T12:22:32.029Z,103026.63
2023-02-28T12:25:07.729Z,103011.09
2023-02-28T12:27:39.743Z,103003.38
2023-02-28T12:30:19.364Z,103001.81
2023-02-28T12:32:59.000Z,103006.72
2023-02-28T12:35:34.174Z,103003.91
2023-02-28T12:38:14.258Z,102975.03
2023-02-28T12:41:06.908Z,103001.59
2023-02-28T12:43:42.791Z,102986.63
2023-02-28T12:46:24.464Z,102981.66
2023-02-28T12:48:56.643Z,102971.59
2023-02-28T12:51:24.765Z,102944.44
2023-02-28T12:54:18.831Z,102972.94
2023-02-28T12:56:45.220Z,102974.91
2023-02-28T12:59:18.236Z,102971.97
2023-02-28T13:02:12.969Z,102921.94
2023-02-28T13:05:16.834Z,102944.22
2023-02-28T13:08:01.646Z,102961.38
2023-02-28T13:10:50.984Z,102956.69
2023-02-28T13:13:20.431Z,102958.66
2023-02-28T13:16:08.824Z,102959.84
2023-02-28T13:18:42.758Z,102960.78
2023-02-28T13:21:22.358Z,102945.72
2023-02-28T13:24:04.070Z,102933.16
2023-02-28T13:26:36.515Z,102949.44
2023-02-28T13:29:11.923Z,102933.88
2023-02-28T13:32:06.717Z,102939.34
2023-02-28T13:34:34.982Z,102937.03
2023-02-28T13:37:22.960Z,102939.63
2023-02-28T13:40:08.202Z,102936.56
2023-02-28T13:42:48.322Z,102938.38
2023-02-28T13:45:14.652Z,102938.47
2023-02-28T13:47:44.448Z,102937.28
2023-02-28T13:50:27.324Z,102934.59
2023-02-28T13:53:12.379Z,102935.56
2023-02-28T13:56:06.733Z,102933.97
2023-02-28T13:58:59.483Z,102938.50
2023-02-28T14:01:47.209Z,102938.28
2023-02-28T14:04:43.194Z,102938.38
2023-02-28T14:07:17.930Z,102940.19
2023-02-28T14:09:53.302Z,102938.47
2023-02-28T14:12:55.658Z,102946.28
2023-02-28T14:15:28.378Z,102944.25
2023-02-28T14:17:57.186Z,102948.78
2023-02-28T14:20:27.644Z,102830.88
2023-02-28T14:23:17.370Z,102909.41
2023-02-28T14:25:53.855Z,102906.44
2023-02-28T14:28:27.375Z,102950.50
2023-02-28T14:31:08.858Z,102944.72
2023-02-28T14:33:48.337Z,102942.03
2023-02-28T14:36:23.944Z,102949.75
2023-02-28T14:38:57.819Z,102940.97
2023-02-28T14:41:39.750Z,102944.56
2023-02-28T14:44:18.584Z,102944.00
2023-02-28T14:46:47.031Z,102890.09
2023-02-28T14:49:19.362Z,102933.09
2023-02-28T14:51:48.544Z,102936.31
2023-02-28T14:54:17.550Z,102932.84
2023-02-28T14:56:44.055Z,102938.09
2023-02-28T14:59:36.965Z,102924.38
2023-02-28T15:02:17.386Z,102936.84
2023-02-28T15:04:43.930Z,102935.28
2023-02-28T15:07:16.469Z,102903.78
2023-02-28T15:09:43.087Z,102923.28
2023-02-28T15:12:15.870Z,102916.97
2023-02-28T15:14:45.307Z,102935.31
2023-02-28T15:17:24.076Z,102926.19
2023-02-28T15:19:54.012Z,102915.63
2023-02-28T15:22:36.754Z,102924.78
2023-02-28T15:25:05.078Z,102917.03
2023-02-28T15:27:34.120Z,102918.22
2023-02-28T15:30:06.699Z,102911.59
2023-02-28T15:32:42.226Z,102910.38
2023-02-28T15:35:21.708Z,102908.34
2023-02-28T15:37:54.467Z,102906.63
2023-02-28T15:40:26.862Z,102906.88
2023-02-28T15:43:04.540Z,102900.97
2023-02-28T15:45:56.232Z,102905.81
2023-02-28T15:48:33.576Z,102901.09
2023-02-28T15:51:18.395Z,102894.75
2023-02-28T15:53:55.352Z,102888.22
2023-02-28T15:56:26.437Z,102895.75
2023-02-28T15:58:58.582Z,102898.63
2023-02-28T16:01:45.478Z,102892.72
2023-02-28T16:04:18.413Z,102852.63
2023-02-28T16:07:06.147Z,102882.22
2023-02-28T16:09:34.964Z,102887.41
2023-02-28T16:12:03.516Z,102890.34
2023-02-28T16:14:31.759Z,102890.28
2023-02-28T16:17:05.529Z,102896.53
2023-02-28T16:19:33.892Z,102897.75
2023-02-28T16:22:02.017Z,102871.59
2023-02-28T16:24:28.689Z,102886.06
2023-02-28T16:26:56.827Z,102893.66
2023-02-28T16:29:28.060Z,102909.00
2023-02-28T16:31:55.050Z,102885.72
2023-02-28T16:34:22.288Z,102909.97
2023-02-28T16:36:49.567Z,102905.88
2023-02-28T16:39:15.983Z,102910.41
2023-02-28T16:41:46.842Z,102914.06
2023-02-28T16:44:34.698Z,102906.19
2023-02-28T16:47:02.436Z,102915.47
2023-02-28T16:49:30.057Z,102905.31
2023-02-28T16:51:56.612Z,102870.59
2023-02-28T16:54:23.228Z,102908.44
2023-02-28T16:56:50.593Z,102902.94
2023-02-28T16:59:22.312Z,102925.91
2023-02-28T17:01:49.198Z,102912.72
2023-02-28T17:04:16.606Z,102927.59
2023-02-28T17:06:43.033Z,102887.00
2023-02-28T17:09:17.201Z,102924.81
2023-02-28T17:11:43.794Z,102897.25
2023-02-28T17:14:10.257Z,102926.44
2023-02-28T17:16:40.820Z,102944.63
2023-02-28T17:19:11.869Z,102917.75
2023-02-28T17:21:38.750Z,102938.31
2023-02-28T17:24:05.907Z,102942.41
2023-02-28T17:26:33.078Z,102934.31
2023-02-28T17:28:59.706Z,102935.84
2023-02-28T17:31:27.761Z,102935.56
2023-02-28T17:33:56.067Z,102944.16
2023-02-28T17:36:25.629Z,102955.00
2023-02-28T17:38:54.070Z,102962.56
2023-02-28T17:41:20.533Z,102953.50
2023-02-28T17:43:46.944Z,102955.69
2023-02-28T17:46:22.664Z,102941.50
2023-02-28T17:48:50.419Z,102957.53
2023-02-28T17:51:18.796Z,102958.00
2023-02-28T17:53:45.634Z,102945.47
2023-02-28T17:56:14.639Z,102970.25
2023-02-28T17:58:41.055Z,102961.91
2023-02-28T18:01:07.778Z,102964.75
2023-02-28T18:03:34.505Z,102972.88
2023-02-28T18:06:01.577Z,102949.72
2023-02-28T18:08:28.009Z,102968.06
2023-02-28T18:10:54.537Z,102975.34
2023-02-28T18:13:20.978Z,102969.38
2023-02-28T18:15:48.445Z,102968.75
2023-02-28T18:18:16.640Z,102947.38
2023-02-28T18:20:43.356Z,102964.84
2023-02-28T18:23:10.452Z,102950.44
2023-02-28T18:25:38.646Z,102978.38
2023-02-28T18:28:05.651Z,102937.84
2023-02-28T18:30:37.331Z,102973.50
2023-02-28T18:33:04.626Z,102939.13
2023-02-28T18:35:37.559Z,102971.25
2023-02-28T18:38:22.471Z,102982.88
2023-02-28T18:41:01.031Z,102977.75
2023-02-28T18:43:32.531Z,102971.84
2023-02-28T18:46:04.615Z,102972.00
2023-02-28T18:48:31.023Z,102923.72
2023-02-28T18:50:57.615Z,102982.94
2023-02-28T18:53:24.139Z,102973.53
2023-02-28T18:55:50.548Z,102986.81
2023-02-28T18:58:16.999Z,102924.47
2023-02-28T19:00:44.565Z,102976.63
2023-02-28T19:03:12.728Z,102955.09
2023-02-28T19:05:39.851Z,102975.13
2023-02-28T19:08:06.285Z,102972.72
2023-02-28T19:10:33.417Z,102979.94
2023-02-28T19:12:59.995Z,102922.81
2023-02-28T19:15:26.732Z,102928.09
2023-02-28T19:17:53.136Z,102958.56
2023-02-28T19:20:19.804Z,102967.41
2023-02-28T19:22:46.436Z,102935.47
2023-02-28T19:25:12.829Z,102965.97
2023-02-28T19:27:39.401Z,102973.97
2023-02-28T19:30:07.399Z,102980.19
2023-02-28T19:32:33.917Z,102968.16
2023-02-28T19:35:00.745Z,102982.97
2023-02-28T19:37:27.133Z,102989.22
2023-02-28T19:39:56.865Z,102974.50
2023-02-28T19:42:23.354Z,102949.53
2023-02-28T19:44:49.752Z,102984.19
2023-02-28T19:47:16.513Z,102990.41
2023-02-28T19:49:42.998Z,102956.78
2023-02-28T19:52:13.307Z,102982.75
2023-02-28T19:54:42.230Z,102991.50
2023-02-28T19:57:08.681Z,102996.00
2023-02-28T19:59:39.226Z,102990.94
2023-02-28T20:02:14.239Z,102993.50
2023-02-28T20:04:40.817Z,102988.31
2023-02-28T20:07:07.336Z,102988.34
2023-02-28T20:09:33.944Z,102986.63
2023-02-28T20:12:00.899Z,102962.41
2023-02-28T20:14:27.643Z,102986.75
2023-02-28T20:16:55.953Z,102992.00
2023-02-28T20:19:23.596Z,102958.19
2023-02-28T20:21:50.026Z,102993.00
2023-02-28T20:24:16.647Z,102995.72
2023-02-28T20:26:43.228Z,102990.56
2023-02-28T20:29:09.717Z,102968.94
2023-02-28T20:31:39.820Z,102998.66
2023-02-28T20:34:06.516Z,102995.03
2023-02-28T20:36:33.138Z,102956.03
2023-02-28T20:39:00.474Z,102955.19
2023-02-28T20:41:27.692Z,102956.97
2023-02-28T20:43:59.122Z,102983.00
2023-02-28T20:46:26.162Z,102991.75
2023-02-28T20:48:53.092Z,102996.19
2023-02-28T20:51:19.958Z,102956.28
2023-02-28T20:53:46.452Z,102982.38
2023-02-28T20:56:20.756Z,102989.34
2023-02-28T20:58:48.821Z,102980.66
2023-02-28T21:01:16.821Z,102979.75
2023-02-28T21:03:48.892Z,102973.66
2023-02-28T21:06:17.278Z,102979.84
2023-02-28T21:08:44.881Z,102982.47
2023-02-28T21:11:14.089Z,102985.16
2023-02-28T21:13:42.014Z,102988.69
2023-02-28T21:16:11.814Z,102946.31
2023-02-28T21:18:38.505Z,102984.44
2023-02-28T21:21:07.708Z,102986.31
2023-02-28T21:23:34.203Z,102944.72
2023-02-28T21:26:10.164Z,102979.38
2023-02-28T21:28:37.888Z,102982.03
2023-02-28T21:31:09.147Z,102994.38
2023-02-28T21:33:35.895Z,102959.84
2023-02-28T21:36:07.891Z,102986.63
2023-02-28T21:38:35.088Z,102972.78
2023-02-28T21:41:16.622Z,102991.88
2023-02-28T21:43:44.375Z,102984.16
2023-02-28T21:46:14.398Z,102983.31
2023-02-28T21:48:43.353Z,102988.63
2023-02-28T21:51:14.168Z,102995.53
2023-02-28T21:53:41.315Z,103001.69
2023-02-28T21:56:15.396Z,103004.31
2023-02-28T21:58:42.378Z,103001.72
2023-02-28T22:01:17.897Z,102999.94
2023-02-28T22:03:45.292Z,102995.59
2023-02-28T22:06:14.594Z,102991.25
2023-02-28T22:08:42.652Z,102986.09
2023-02-28T22:11:10.475Z,102981.75
2023-02-28T22:13:37.921Z,102990.44
2023-02-28T22:16:12.971Z,102992.13
2023-02-28T22:18:40.847Z,102989.50
2023-02-28T22:21:10.281Z,102970.47
2023-02-28T22:23:41.259Z,102986.91
2023-02-28T22:26:10.412Z,102984.31
2023-02-28T22:28:37.505Z,102985.34
2023-02-28T22:31:31.030Z,102994.00
2023-02-28T22:34:00.509Z,102986.19
2023-02-28T22:36:28.374Z,102990.59
2023-02-28T22:38:55.277Z,102933.31
2023-02-28T22:41:23.679Z,102937.75
2023-02-28T22:43:53.330Z,103005.47
2023-02-28T22:46:20.503Z,103008.16
2023-02-28T22:48:48.694Z,103006.47
2023-02-28T22:51:18.567Z,103000.34
2023-02-28T22:53:48.500Z,103002.84
2023-02-28T22:56:17.401Z,102994.09
2023-02-28T22:58:45.492Z,102991.47
2023-02-28T23:01:16.718Z,102990.53
2023-02-28T23:03:43.823Z,102997.41
2023-02-28T23:06:21.189Z,102988.72
2023-02-28T23:08:48.006Z,103009.47
2023-02-28T23:11:24.318Z,102992.06
2023-02-28T23:14:00.161Z,102993.66
2023-02-28T23:16:31.740Z,103009.41
2023-02-28T23:19:01.794Z,102977.25
2023-02-28T23:21:28.374Z,103005.03
2023-02-28T23:23:55.621Z,102986.88
2023-02-28T23:26:22.913Z,102972.84
2023-02-28T23:28:49.872Z,102995.41
2023-02-28T23:31:16.370Z,102985.06
2023-02-28T23:33:42.884Z,102935.47
2023-02-28T23:36:11.721Z,102990.97
2023-02-28T23:38:39.807Z,102984.88
2023-02-28T23:41:10.837Z,102966.63
2023-02-28T23:43:37.669Z,102970.09
2023-02-28T23:46:04.919Z,102976.03
2023-02-28T23:48:32.015Z,102984.75
2023-02-28T23:51:03.786Z,102980.38
2023-02-28T23:53:31.363Z,102978.53
2023-02-28T23:55:57.849Z,102979.41
2023-02-28T23:58:24.407Z,102923.88
